Time,TemperatureF,DewpointF,PressureIn,WindDirection,WindDirectionDegrees,WindSpeedMPH,WindSpeedGustMPH,Humidity,HourlyPrecipIn,Conditions,Clouds,dailyrainin,SoftwareType,DateUTC
2013-11-22 00:03:00,59.1,14.4,29.98,WNW,292,6.0,7.0,17,0.00,,CLR,0.00,VWS V14.01,2013-11-22 08:03:00,
2013-11-22 00:08:00,58.9,14.2,29.99,SW,221,0.0,7.0,17,0.00,,CLR,0.00,VWS V14.01,2013-11-22 08:08:00,
2013-11-22 00:13:00,58.2,16.2,29.99,SSW,203,2.0,7.0,19,0.00,,CLR,0.00,VWS V14.01,2013-11-22 08:13:00,
2013-11-22 00:18:00,57.8,15.8,29.99,NW,316,4.0,5.0,19,0.00,,CLR,0.00,VWS V14.01,2013-11-22 08:18:00,
2013-11-22 00:23:00,57.2,15.3,29.99,SW,216,0.0,6.0,19,0.00,,CLR,0.00,VWS V14.01,2013-11-22 08:23:00,
2013-11-22 00:27:00,56.7,16.1,29.98,SE,127,2.0,6.0,20,0.00,,CLR,0.00,VWS V14.01,2013-11-22 08:27:00,
2013-11-22 00:32:00,56.6,14.8,29.98,SW,236,5.0,9.0,19,0.00,,CLR,0.00,VWS V14.01,2013-11-22 08:32:00,
2013-11-22 00:37:00,57.3,12.9,29.98,North,7,1.0,9.0,17,0.00,,CLR,0.00,VWS V14.01,2013-11-22 08:37:00,
2013-11-22 00:42:00,58.1,14.8,29.98,NNW,345,0.0,9.0,18,0.00,,CLR,0.00,VWS V14.01,2013-11-22 08:42:00,
2013-11-22 00:47:00,58.1,16.1,29.98,NNE,28,1.0,4.0,19,0.00,,CLR,0.00,VWS V14.01,2013-11-22 08:47:00,
2013-11-22 00:52:00,58.2,13.6,29.98,WNW,303,1.0,9.0,17,0.00,,CLR,0.00,VWS V14.01,2013-11-22 08:52:00,
2013-11-22 00:57:00,58.4,13.8,29.98,North,358,3.0,9.0,17,0.00,,CLR,0.00,VWS V14.01,2013-11-22 08:57:00,
2013-11-22 01:02:00,58.6,12.6,29.98,East,84,4.0,11.0,16,0.00,,CLR,0.00,VWS V14.01,2013-11-22 09:02:00,
2013-11-22 01:07:00,58.8,11.3,29.98,ENE,70,7.0,13.0,15,0.00,,CLR,0.00,VWS V14.01,2013-11-22 09:07:00,
2013-11-22 01:12:00,59.0,11.4,29.98,NNE,21,2.0,13.0,15,0.00,,CLR,0.00,VWS V14.01,2013-11-22 09:12:00,
2013-11-22 01:17:00,58.9,11.4,29.99,North,359,1.0,9.0,15,0.00,,CLR,0.00,VWS V14.01,2013-11-22 09:17:00,
2013-11-22 01:22:00,58.9,11.4,29.99,North,2,1.0,10.0,15,0.00,,CLR,0.00,VWS V14.01,2013-11-22 09:22:00,
2013-11-22 01:27:00,58.8,11.3,30.00,North,359,6.0,12.0,15,0.00,,CLR,0.00,VWS V14.01,2013-11-22 09:27:00,
2013-11-22 01:32:00,58.7,12.6,30.00,North,1,9.0,9.0,16,0.00,,CLR,0.00,VWS V14.01,2013-11-22 09:32:00,
2013-11-22 01:38:00,58.7,11.2,30.00,North,1,3.0,11.0,15,0.00,,CLR,0.00,VWS V14.01,2013-11-22 09:38:00,
2013-11-22 01:43:00,58.7,11.2,30.00,NE,48,4.0,11.0,15,0.00,,CLR,0.00,VWS V14.01,2013-11-22 09:43:00,
2013-11-22 01:48:00,58.7,11.2,30.00,SSE,154,4.0,12.0,15,0.00,,CLR,0.00,VWS V14.01,2013-11-22 09:48:00,
2013-11-22 01:53:00,58.6,11.1,30.00,ENE,75,2.0,12.0,15,0.00,,CLR,0.00,VWS V14.01,2013-11-22 09:53:00,
2013-11-22 01:58:00,58.4,10.9,30.00,East,91,10.0,12.0,15,0.00,,CLR,0.00,VWS V14.01,2013-11-22 09:58:00,
2013-11-22 02:03:00,58.5,11.0,29.99,ENE,64,6.0,17.0,15,0.00,,CLR,0.00,VWS V14.01,2013-11-22 10:03:00,
2013-11-22 02:08:00,58.7,11.2,29.99,NE,43,2.0,17.0,15,0.00,,CLR,0.00,VWS V14.01,2013-11-22 10:08:00,
2013-11-22 02:13:00,59.1,10.0,29.99,SE,138,4.0,17.0,14,0.00,,CLR,0.00,VWS V14.01,2013-11-22 10:13:00,
2013-11-22 02:18:00,59.2,10.1,29.99,NE,45,12.0,14.0,14,0.00,,CLR,0.00,VWS V14.01,2013-11-22 10:18:00,
2013-11-22 02:23:00,59.2,10.1,30.00,ESE,109,10.0,19.0,14,0.00,,CLR,0.00,VWS V14.01,2013-11-22 10:23:00,
2013-11-22 02:28:00,59.3,10.1,29.99,East,93,1.0,19.0,14,0.00,,CLR,0.00,VWS V14.01,2013-11-22 10:28:00,
2013-11-22 02:33:00,59.2,10.1,30.00,NNE,33,11.0,14.0,14,0.00,,CLR,0.00,VWS V14.01,2013-11-22 10:33:00,
2013-11-22 02:38:00,59.3,10.1,29.99,NNE,28,6.0,16.0,14,0.00,,CLR,0.00,VWS V14.01,2013-11-22 10:38:00,
2013-11-22 02:43:00,59.2,10.1,30.00,North,2,8.0,16.0,14,0.00,,CLR,0.00,VWS V14.01,2013-11-22 10:43:00,
2013-11-22 02:48:00,59.3,10.1,29.99,East,92,9.0,17.0,14,0.00,,CLR,0.00,VWS V14.01,2013-11-22 10:48:00,
2013-11-22 02:53:00,59.4,10.2,29.99,NE,39,5.0,22.0,14,0.00,,CLR,0.00,VWS V14.01,2013-11-22 10:53:00,
2013-11-22 02:58:00,59.3,10.1,29.99,NNE,22,9.0,22.0,14,0.00,,CLR,0.00,VWS V14.01,2013-11-22 10:58:00,
2013-11-22 03:03:00,59.1,10.0,29.99,ENE,58,10.0,18.0,14,0.00,,CLR,0.00,VWS V14.01,2013-11-22 11:03:00,
2013-11-22 03:08:00,59.0,9.9,29.99,ENE,59,5.0,18.0,14,0.00,,CLR,0.00,VWS V14.01,2013-11-22 11:08:00,
2013-11-22 03:13:00,58.9,9.8,29.99,ENE,76,7.0,18.0,14,0.00,,CLR,0.00,VWS V14.01,2013-11-22 11:13:00,
2013-11-22 03:18:00,58.9,9.8,30.00,NNE,27,7.0,14.0,14,0.00,,CLR,0.00,VWS V14.01,2013-11-22 11:18:00,
2013-11-22 03:23:00,59.0,9.9,30.00,NE,45,3.0,14.0,14,0.00,,CLR,0.00,VWS V14.01,2013-11-22 11:23:00,
2013-11-22 03:28:00,59.1,10.0,30.01,ESE,120,5.0,14.0,14,0.00,,CLR,0.00,VWS V14.01,2013-11-22 11:28:00,
2013-11-22 03:33:00,59.2,10.1,30.01,East,96,5.0,9.0,14,0.00,,CLR,0.00,VWS V14.01,2013-11-22 11:33:00,
2013-11-22 03:38:00,59.2,8.4,30.01,NNE,25,4.0,9.0,13,0.00,,CLR,0.00,VWS V14.01,2013-11-22 11:38:00,
2013-11-22 03:43:00,59.1,10.0,30.01,North,1,3.0,9.0,14,0.00,,CLR,0.00,VWS V14.01,2013-11-22 11:43:00,
2013-11-22 03:48:00,59.2,10.1,30.00,NE,37,2.0,10.0,14,0.00,,CLR,0.00,VWS V14.01,2013-11-22 11:48:00,
2013-11-22 03:53:00,59.1,10.0,30.01,ENE,63,3.0,10.0,14,0.00,,CLR,0.00,VWS V14.01,2013-11-22 11:53:00,
2013-11-22 03:58:00,58.9,9.8,30.01,NE,51,2.0,10.0,14,0.00,,CLR,0.00,VWS V14.01,2013-11-22 11:58:00,
2013-11-22 04:03:00,58.5,11.0,30.01,North,1,2.0,3.0,15,0.00,,CLR,0.00,VWS V14.01,2013-11-22 12:03:00,
2013-11-22 04:08:00,58.0,9.1,30.02,SE,146,4.0,14.0,14,0.00,,CLR,0.00,VWS V14.01,2013-11-22 12:08:00,
2013-11-22 04:13:00,58.5,7.8,30.02,NNE,20,5.0,16.0,13,0.00,,CLR,0.00,VWS V14.01,2013-11-22 12:13:00,
2013-11-22 04:18:00,58.4,7.8,30.01,NE,50,2.0,4.0,13,0.00,,CLR,0.00,VWS V14.01,2013-11-22 12:18:00,
2013-11-22 04:23:00,58.4,7.8,30.02,NE,44,5.0,9.0,13,0.00,,CLR,0.00,VWS V14.01,2013-11-22 12:23:00,
2013-11-22 04:28:00,58.3,7.7,30.01,NW,324,1.0,9.0,13,0.00,,CLR,0.00,VWS V14.01,2013-11-22 12:28:00,
2013-11-22 04:33:00,58.0,9.1,30.01,East,92,5.0,10.0,14,0.00,,CLR,0.00,VWS V14.01,2013-11-22 12:33:00,
2013-11-22 04:38:00,58.4,7.8,30.01,ENE,72,8.0,13.0,13,0.00,,CLR,0.00,VWS V14.01,2013-11-22 12:38:00,
2013-11-22 04:43:00,58.7,6.2,30.01,North,1,6.0,14.0,12,0.00,,CLR,0.00,VWS V14.01,2013-11-22 12:43:00,
2013-11-22 04:48:00,59.1,6.6,30.01,North,1,2.0,13.0,12,0.00,,CLR,0.00,VWS V14.01,2013-11-22 12:48:00,
2013-11-22 04:53:00,59.2,6.6,30.02,ENE,57,5.0,17.0,12,0.00,,CLR,0.00,VWS V14.01,2013-11-22 12:53:00,
2013-11-22 04:58:00,59.4,6.8,30.01,ENE,66,1.0,17.0,12,0.00,,CLR,0.00,VWS V14.01,2013-11-22 12:58:00,
2013-11-22 05:03:00,59.2,6.6,30.02,ENE,65,2.0,5.0,12,0.00,,CLR,0.00,VWS V14.01,2013-11-22 13:03:00,
2013-11-22 05:08:00,58.3,7.7,30.02,NE,41,0.0,5.0,13,0.00,,CLR,0.00,VWS V14.01,2013-11-22 13:08:00,
2013-11-22 05:13:00,57.4,7.0,30.02,North,357,0.0,5.0,13,0.00,,CLR,0.00,VWS V14.01,2013-11-22 13:13:00,
2013-11-22 05:18:00,57.3,8.5,30.01,East,84,7.0,7.0,14,0.00,,CLR,0.00,VWS V14.01,2013-11-22 13:18:00,
2013-11-22 05:23:00,57.5,8.7,30.01,ESE,120,3.0,8.0,14,0.00,,CLR,0.00,VWS V14.01,2013-11-22 13:23:00,
2013-11-22 05:28:00,57.1,9.9,30.02,NE,46,1.0,8.0,15,0.00,,CLR,0.00,VWS V14.01,2013-11-22 13:28:00,
2013-11-22 05:33:00,56.3,12.1,30.02,NNE,27,0.0,2.0,17,0.00,,CLR,0.00,VWS V14.01,2013-11-22 13:33:00,
2013-11-22 05:38:00,55.4,12.6,30.02,West,265,0.0,4.0,18,0.00,,CLR,0.00,VWS V14.01,2013-11-22 13:38:00,
2013-11-22 05:43:00,53.9,15.9,30.02,West,265,0.0,4.0,22,0.00,,CLR,0.00,VWS V14.01,2013-11-22 13:43:00,
2013-11-22 05:48:00,52.9,12.9,30.02,West,265,0.0,0.0,20,0.00,,CLR,0.00,VWS V14.01,2013-11-22 13:48:00,
2013-11-22 05:53:00,52.6,12.7,30.02,West,265,0.0,2.0,20,0.00,,CLR,0.00,VWS V14.01,2013-11-22 13:53:00,
2013-11-22 05:58:00,52.1,13.4,30.02,West,267,0.0,2.0,21,0.00,,CLR,0.00,VWS V14.01,2013-11-22 13:58:00,
2013-11-22 06:03:00,52.1,15.4,30.02,NE,36,3.0,4.0,23,0.00,,CLR,0.00,VWS V14.01,2013-11-22 14:03:00,
2013-11-22 06:08:00,52.3,14.6,30.02,North,359,0.0,5.0,22,0.00,,CLR,0.00,VWS V14.01,2013-11-22 14:08:00,
2013-11-22 06:13:00,51.2,16.6,30.02,NNW,343,0.0,5.0,25,0.00,,CLR,0.00,VWS V14.01,2013-11-22 14:13:00,
2013-11-22 06:18:00,50.6,14.2,30.02,North,352,0.0,2.0,23,0.00,,CLR,0.00,VWS V14.01,2013-11-22 14:18:00,
2013-11-22 06:23:00,50.7,14.3,30.02,SW,222,0.0,4.0,23,0.00,,CLR,0.00,VWS V14.01,2013-11-22 14:23:00,
2013-11-22 06:28:00,51.0,14.5,30.02,SW,224,2.0,5.0,23,0.00,,CLR,0.00,VWS V14.01,2013-11-22 14:28:00,
2013-11-22 06:33:00,51.2,13.7,30.02,NNE,27,0.0,3.0,22,0.00,,CLR,0.00,VWS V14.01,2013-11-22 14:33:00,
2013-11-22 06:38:00,51.7,15.1,30.02,NNE,27,1.0,3.0,23,0.00,,CLR,0.00,VWS V14.01,2013-11-22 14:38:00,
2013-11-22 06:43:00,51.2,14.7,30.02,NNE,27,2.0,3.0,23,0.00,,CLR,0.00,VWS V14.01,2013-11-22 14:43:00,
2013-11-22 06:48:00,51.3,15.8,30.01,NW,322,2.0,3.0,24,0.00,,CLR,0.00,VWS V14.01,2013-11-22 14:48:00,
2013-11-22 06:53:00,50.5,15.1,30.02,North,355,0.0,3.0,24,0.00,,CLR,0.00,VWS V14.01,2013-11-22 14:53:00,
2013-11-22 06:58:00,50.3,18.5,30.02,NNW,342,2.0,3.0,28,0.00,,CLR,0.00,VWS V14.01,2013-11-22 14:58:00,
2013-11-22 07:03:00,49.1,18.2,30.02,WNW,298,1.0,3.0,29,0.00,,CLR,0.00,VWS V14.01,2013-11-22 15:03:00,
2013-11-22 07:08:00,48.4,18.4,30.02,WNW,298,0.0,3.0,30,0.00,,CLR,0.00,VWS V14.01,2013-11-22 15:08:00,
2013-11-22 07:13:00,48.3,18.3,30.02,WNW,298,0.0,3.0,30,0.00,,CLR,0.00,VWS V14.01,2013-11-22 15:13:00,
2013-11-22 07:18:00,49.0,16.5,30.02,North,359,2.0,3.0,27,0.00,,CLR,0.00,VWS V14.01,2013-11-22 15:18:00,
2013-11-22 07:23:00,48.9,17.2,30.02,North,360,0.0,3.0,28,0.00,,CLR,0.00,VWS V14.01,2013-11-22 15:23:00,
2013-11-22 07:28:00,49.0,18.9,30.02,West,274,2.0,3.0,30,0.00,,CLR,0.00,VWS V14.01,2013-11-22 15:28:00,
2013-11-22 07:33:00,48.1,19.6,30.02,NNE,13,2.0,3.0,32,0.00,,CLR,0.00,VWS V14.01,2013-11-22 15:33:00,
2013-11-22 07:38:00,49.3,17.6,30.02,NNE,15,0.0,3.0,28,0.00,,CLR,0.00,VWS V14.01,2013-11-22 15:38:00,
2013-11-22 07:43:00,50.5,18.6,30.02,NNE,15,0.0,3.0,28,0.00,,CLR,0.00,VWS V14.01,2013-11-22 15:43:00,
2013-11-22 07:48:00,50.8,18.9,30.02,NNE,15,0.0,2.0,28,0.00,,CLR,0.00,VWS V14.01,2013-11-22 15:48:00,
2013-11-22 07:53:00,50.8,21.3,30.02,NNE,15,0.0,2.0,31,0.00,,CLR,0.00,VWS V14.01,2013-11-22 15:53:00,
2013-11-22 07:58:00,51.0,21.5,30.02,NW,326,1.0,2.0,31,0.00,,CLR,0.00,VWS V14.01,2013-11-22 15:58:00,
2013-11-22 08:03:00,53.2,17.4,30.02,WNW,302,3.0,6.0,24,0.00,,CLR,0.00,VWS V14.01,2013-11-22 16:03:00,
2013-11-22 08:08:00,56.6,13.6,30.03,WNW,294,4.0,6.0,18,0.00,,CLR,0.00,VWS V14.01,2013-11-22 16:08:00,
2013-11-22 08:13:00,58.6,11.1,30.03,NW,305,2.0,6.0,15,0.00,,CLR,0.00,VWS V14.01,2013-11-22 16:13:00,
2013-11-22 08:18:00,60.1,10.8,30.02,West,265,4.0,4.0,14,0.00,,CLR,0.00,VWS V14.01,2013-11-22 16:18:00,
2013-11-22 08:23:00,60.4,11.0,30.02,NW,325,1.0,4.0,14,0.00,,CLR,0.00,VWS V14.01,2013-11-22 16:23:00,
2013-11-22 08:28:00,60.2,13.9,30.02,ENE,67,2.0,4.0,16,0.00,,CLR,0.00,VWS V14.01,2013-11-22 16:28:00,
2013-11-22 08:33:00,61.7,10.4,30.02,ENE,66,4.0,9.0,13,0.00,,CLR,0.00,VWS V14.01,2013-11-22 16:33:00,
2013-11-22 08:38:00,63.2,5.8,30.02,NE,40,5.0,11.0,10,0.00,,CLR,0.00,VWS V14.01,2013-11-22 16:38:00,
2013-11-22 08:43:00,64.0,6.4,30.02,ENE,60,5.0,11.0,10,0.00,,CLR,0.00,VWS V14.01,2013-11-22 16:43:00,
2013-11-22 08:48:00,64.4,4.4,30.02,NE,36,2.0,9.0,9,0.00,,CLR,0.00,VWS V14.01,2013-11-22 16:48:00,
2013-11-22 08:53:00,64.4,6.7,30.02,ESE,105,1.0,9.0,10,0.00,,CLR,0.00,VWS V14.01,2013-11-22 16:53:00,
2013-11-22 08:58:00,64.9,7.1,30.02,NNE,26,6.0,10.0,10,0.00,,CLR,0.00,VWS V14.01,2013-11-22 16:58:00,
2013-11-22 09:03:00,65.1,4.9,30.02,WNW,300,7.0,12.0,9,0.00,,CLR,0.00,VWS V14.01,2013-11-22 17:03:00,
2013-11-22 09:08:00,65.3,7.4,30.02,North,3,5.0,12.0,10,0.00,,CLR,0.00,VWS V14.01,2013-11-22 17:08:00,
2013-11-22 09:13:00,65.7,7.7,30.02,East,80,4.0,12.0,10,0.00,,CLR,0.00,VWS V14.01,2013-11-22 17:13:00,
2013-11-22 09:18:00,66.1,5.7,30.01,North,360,3.0,6.0,9,0.00,,CLR,0.00,VWS V14.01,2013-11-22 17:18:00,
2013-11-22 09:23:00,66.1,5.7,30.02,East,99,4.0,11.0,9,0.00,,CLR,0.00,VWS V14.01,2013-11-22 17:23:00,
2013-11-22 09:28:00,66.4,5.9,30.02,NNE,19,3.0,14.0,9,0.00,,CLR,0.00,VWS V14.01,2013-11-22 17:28:00,
2013-11-22 09:33:00,66.6,6.0,30.01,North,1,10.0,16.0,9,0.00,,CLR,0.00,VWS V14.01,2013-11-22 17:33:00,
2013-11-22 09:38:00,66.7,6.1,30.02,North,8,15.0,17.0,9,0.00,,CLR,0.00,VWS V14.01,2013-11-22 17:38:00,
2013-11-22 09:43:00,66.8,3.6,30.01,NNE,30,9.0,20.0,8,0.00,,CLR,0.00,VWS V14.01,2013-11-22 17:43:00,
2013-11-22 09:48:00,67.0,6.3,30.01,North,359,11.0,15.0,9,0.00,,CLR,0.00,VWS V14.01,2013-11-22 17:48:00,
2013-11-22 09:53:00,67.2,6.5,30.01,NE,55,5.0,15.0,9,0.00,,CLR,0.00,VWS V14.01,2013-11-22 17:53:00,
2013-11-22 09:58:00,67.5,4.2,30.01,ENE,77,2.0,16.0,8,0.00,,CLR,0.00,VWS V14.01,2013-11-22 17:58:00,
2013-11-22 10:03:00,67.7,6.9,30.00,NNE,23,5.0,11.0,9,0.00,,CLR,0.00,VWS V14.01,2013-11-22 18:03:00,
2013-11-22 10:08:00,68.1,7.2,30.00,NNW,337,3.0,14.0,9,0.00,,CLR,0.00,VWS V14.01,2013-11-22 18:08:00,
2013-11-22 10:13:00,68.5,7.5,30.00,NNE,30,4.0,14.0,9,0.00,,CLR,0.00,VWS V14.01,2013-11-22 18:13:00,
2013-11-22 10:18:00,68.5,7.5,30.00,North,360,9.0,14.0,9,0.00,,CLR,0.00,VWS V14.01,2013-11-22 18:18:00,
2013-11-22 10:23:00,68.7,7.6,30.01,East,79,4.0,14.0,9,0.00,,CLR,0.00,VWS V14.01,2013-11-22 18:23:00,
2013-11-22 10:28:00,68.7,7.6,30.00,East,101,2.0,14.0,9,0.00,,CLR,0.00,VWS V14.01,2013-11-22 18:28:00,
2013-11-22 10:33:00,68.9,10.1,30.00,North,360,8.0,23.0,10,0.00,,CLR,0.00,VWS V14.01,2013-11-22 18:33:00,
2013-11-22 10:38:00,68.9,5.2,30.00,East,80,7.0,23.0,8,0.00,,CLR,0.00,VWS V14.01,2013-11-22 18:38:00,
2013-11-22 10:43:00,69.0,5.3,30.00,East,82,11.0,23.0,8,0.00,,CLR,0.00,VWS V14.01,2013-11-22 18:43:00,
2013-11-22 10:48:00,69.2,5.4,30.00,NE,55,11.0,17.0,8,0.00,,CLR,0.00,VWS V14.01,2013-11-22 18:48:00,
2013-11-22 10:53:00,69.3,5.5,30.00,North,6,4.0,17.0,8,0.00,,CLR,0.00,VWS V14.01,2013-11-22 18:53:00,
2013-11-22 10:58:00,69.7,8.4,29.99,NNE,29,7.0,17.0,9,0.00,,CLR,0.00,VWS V14.01,2013-11-22 18:58:00,
2013-11-22 11:03:00,69.7,8.4,30.00,East,96,1.0,12.0,9,0.00,,CLR,0.00,VWS V14.01,2013-11-22 19:03:00,
2013-11-22 11:08:00,69.9,8.5,29.99,ENE,58,9.0,16.0,9,0.00,,CLR,0.00,VWS V14.01,2013-11-22 19:08:00,
2013-11-22 11:13:00,70.4,8.9,29.99,NE,37,1.0,16.0,9,0.00,,CLR,0.00,VWS V14.01,2013-11-22 19:13:00,
2013-11-22 11:18:00,70.6,9.1,29.99,NW,326,0.0,12.0,9,0.00,,CLR,0.00,VWS V14.01,2013-11-22 19:18:00,
2013-11-22 11:23:00,70.8,6.6,29.98,NNW,345,8.0,13.0,8,0.00,,CLR,0.00,VWS V14.01,2013-11-22 19:23:00,
2013-11-22 11:28:00,70.8,9.2,29.98,ENE,64,8.0,13.0,9,0.00,,CLR,0.00,VWS V14.01,2013-11-22 19:28:00,
2013-11-22 11:33:00,70.9,9.3,29.98,NE,48,2.0,11.0,9,0.00,,CLR,0.00,VWS V14.01,2013-11-22 19:33:00,
2013-11-22 11:38:00,71.6,12.2,29.98,ENE,75,2.0,11.0,10,0.00,,CLR,0.00,VWS V14.01,2013-11-22 19:38:00,
2013-11-22 11:43:00,71.7,7.3,29.98,NE,53,15.0,15.0,8,0.00,,CLR,0.00,VWS V14.01,2013-11-22 19:43:00,
2013-11-22 11:48:00,71.7,9.9,29.98,NE,39,8.0,13.0,9,0.00,,CLR,0.00,VWS V14.01,2013-11-22 19:48:00,
2013-11-22 11:53:00,71.8,12.3,29.98,ESE,120,5.0,13.0,10,0.00,,CLR,0.00,VWS V14.01,2013-11-22 19:53:00,
2013-11-22 11:58:00,72.2,10.3,29.97,NNE,21,3.0,13.0,9,0.00,,CLR,0.00,VWS V14.01,2013-11-22 19:58:00,
2013-11-22 12:03:00,72.5,10.5,29.98,East,89,3.0,12.0,9,0.00,,CLR,0.00,VWS V14.01,2013-11-22 20:03:00,
2013-11-22 12:08:00,72.3,10.4,29.98,North,1,5.0,13.0,9,0.00,,CLR,0.00,VWS V14.01,2013-11-22 20:08:00,
2013-11-22 12:13:00,72.5,12.9,29.97,ENE,73,2.0,13.0,10,0.00,,CLR,0.00,VWS V14.01,2013-11-22 20:13:00,
2013-11-22 12:18:00,72.8,10.7,29.96,ENE,68,3.0,10.0,9,0.00,,CLR,0.00,VWS V14.01,2013-11-22 20:18:00,
2013-11-22 12:23:00,73.0,13.3,29.96,NE,55,10.0,13.0,10,0.00,,CLR,0.00,VWS V14.01,2013-11-22 20:23:00,
2013-11-22 12:28:00,73.0,13.3,29.95,SE,129,5.0,13.0,10,0.00,,CLR,0.00,VWS V14.01,2013-11-22 20:28:00,
2013-11-22 12:33:00,73.0,13.3,29.95,North,360,7.0,11.0,10,0.00,,CLR,0.00,VWS V14.01,2013-11-22 20:33:00,
2013-11-22 12:38:00,73.0,10.9,29.94,NNE,33,6.0,14.0,9,0.00,,CLR,0.00,VWS V14.01,2013-11-22 20:38:00,
2013-11-22 12:43:00,73.0,10.9,29.94,East,94,5.0,14.0,9,0.00,,CLR,0.00,VWS V14.01,2013-11-22 20:43:00,
2013-11-22 12:48:00,73.3,11.1,29.94,North,10,8.0,15.0,9,0.00,,CLR,0.00,VWS V14.01,2013-11-22 20:48:00,
2013-11-22 12:53:00,73.4,8.6,29.94,ENE,59,6.0,19.0,8,0.00,,CLR,0.00,VWS V14.01,2013-11-22 20:53:00,
2013-11-22 12:58:00,73.2,11.0,29.94,North,350,3.0,19.0,9,0.00,,CLR,0.00,VWS V14.01,2013-11-22 20:58:00,
2013-11-22 13:03:00,73.3,11.1,29.94,NNE,22,12.0,15.0,9,0.00,,CLR,0.00,VWS V14.01,2013-11-22 21:03:00,
2013-11-22 13:08:00,73.1,8.3,29.93,NE,40,6.0,16.0,8,0.00,,CLR,0.00,VWS V14.01,2013-11-22 21:08:00,
2013-11-22 13:13:00,73.4,11.2,29.94,NE,53,6.0,16.0,9,0.00,,CLR,0.00,VWS V14.01,2013-11-22 21:13:00,
2013-11-22 13:18:00,73.3,8.5,29.94,ENE,74,10.0,16.0,8,0.00,,CLR,0.00,VWS V14.01,2013-11-22 21:18:00,
2013-11-22 13:23:00,73.7,11.4,29.94,NNE,23,5.0,16.0,9,0.00,,CLR,0.00,VWS V14.01,2013-11-22 21:23:00,
2013-11-22 13:28:00,73.9,8.9,29.95,East,96,10.0,16.0,8,0.00,,CLR,0.00,VWS V14.01,2013-11-22 21:28:00,
2013-11-22 13:33:00,73.7,8.8,29.94,NNE,32,3.0,14.0,8,0.00,,CLR,0.00,VWS V14.01,2013-11-22 21:33:00,
2013-11-22 13:38:00,73.9,11.6,29.95,North,359,6.0,14.0,9,0.00,,CLR,0.00,VWS V14.01,2013-11-22 21:38:00,
2013-11-22 13:43:00,73.9,8.9,29.94,NE,35,8.0,14.0,8,0.00,,CLR,0.00,VWS V14.01,2013-11-22 21:43:00,
2013-11-22 13:48:00,73.9,8.9,29.93,North,2,2.0,7.0,8,0.00,,CLR,0.00,VWS V14.01,2013-11-22 21:48:00,
2013-11-22 13:53:00,74.6,12.1,29.93,ENE,65,5.0,10.0,9,0.00,,CLR,0.00,VWS V14.01,2013-11-22 21:53:00,
2013-11-22 13:58:00,74.4,6.3,29.93,East,89,7.0,10.0,7,0.00,,CLR,0.00,VWS V14.01,2013-11-22 21:58:00,
2013-11-22 14:03:00,74.0,6.1,29.93,ENE,71,5.0,14.0,7,0.00,,CLR,0.00,VWS V14.01,2013-11-22 22:03:00,
2013-11-22 14:08:00,74.0,6.1,29.93,NE,56,7.0,14.0,7,0.00,,CLR,0.00,VWS V14.01,2013-11-22 22:08:00,
2013-11-22 14:13:00,74.3,6.3,29.93,NE,48,2.0,14.0,7,0.00,,CLR,0.00,VWS V14.01,2013-11-22 22:13:00,
2013-11-22 14:18:00,74.5,9.4,29.93,SSE,147,3.0,6.0,8,0.00,,CLR,0.00,VWS V14.01,2013-11-22 22:18:00,
2013-11-22 14:23:00,74.1,9.1,29.92,SE,127,2.0,7.0,8,0.00,,CLR,0.00,VWS V14.01,2013-11-22 22:23:00,
2013-11-22 14:28:00,74.4,9.3,29.92,ESE,123,3.0,7.0,8,0.00,,CLR,0.00,VWS V14.01,2013-11-22 22:28:00,
2013-11-22 14:33:00,74.3,6.3,29.92,North,360,2.0,10.0,7,0.00,,CLR,0.00,VWS V14.01,2013-11-22 22:33:00,
2013-11-22 14:38:00,73.9,6.0,29.92,NNE,15,3.0,10.0,7,0.00,,CLR,0.00,VWS V14.01,2013-11-22 22:38:00,
2013-11-22 14:43:00,73.7,5.8,29.92,NE,39,7.0,10.0,7,0.00,,CLR,0.00,VWS V14.01,2013-11-22 22:43:00,
2013-11-22 14:48:00,73.7,5.8,29.92,NE,52,3.0,7.0,7,0.00,,CLR,0.00,VWS V14.01,2013-11-22 22:48:00,
2013-11-22 14:53:00,73.5,5.7,29.91,North,1,3.0,10.0,7,0.00,,CLR,0.00,VWS V14.01,2013-11-22 22:53:00,
2013-11-22 14:58:00,73.4,8.6,29.91,NW,323,2.0,10.0,8,0.00,,CLR,0.00,VWS V14.01,2013-11-22 22:58:00,
2013-11-22 15:03:00,73.2,11.0,29.92,SE,130,3.0,5.0,9,0.00,,CLR,0.00,VWS V14.01,2013-11-22 23:03:00,
2013-11-22 15:08:00,73.2,8.4,29.91,SSE,148,3.0,7.0,8,0.00,,CLR,0.00,VWS V14.01,2013-11-22 23:08:00,
2013-11-22 15:12:00,73.4,5.6,29.92,NNE,17,2.0,7.0,7,0.00,,CLR,0.00,VWS V14.01,2013-11-22 23:12:00,
2013-11-22 15:17:00,73.0,5.3,29.92,NNE,28,4.0,12.0,7,0.00,,CLR,0.00,VWS V14.01,2013-11-22 23:17:00,
2013-11-22 15:22:00,73.0,5.3,29.92,NNE,14,2.0,12.0,7,0.00,,CLR,0.00,VWS V14.01,2013-11-22 23:22:00,
2013-11-22 15:27:00,72.6,8.0,29.92,NNW,347,5.0,12.0,8,0.00,,CLR,0.00,VWS V14.01,2013-11-22 23:27:00,
2013-11-22 15:32:00,72.5,7.9,29.92,NNW,345,8.0,12.0,8,0.00,,CLR,0.00,VWS V14.01,2013-11-22 23:32:00,
2013-11-22 15:37:00,72.6,5.0,29.92,NE,48,1.0,12.0,7,0.00,,CLR,0.00,VWS V14.01,2013-11-22 23:37:00,
2013-11-22 15:42:00,72.5,7.9,29.92,NNE,33,0.0,12.0,8,0.00,,CLR,0.00,VWS V14.01,2013-11-22 23:42:00,
2013-11-22 15:47:00,71.8,10.0,29.92,NNW,343,0.0,3.0,9,0.00,,CLR,0.00,VWS V14.01,2013-11-22 23:47:00,
2013-11-22 15:52:00,71.9,7.4,29.92,NNE,16,1.0,5.0,8,0.00,,CLR,0.00,VWS V14.01,2013-11-22 23:52:00,
2013-11-22 15:57:00,71.9,7.4,29.92,East,81,5.0,7.0,8,0.00,,CLR,0.00,VWS V14.01,2013-11-22 23:57:00,
2013-11-22 16:02:00,71.9,7.4,29.92,WNW,299,3.0,4.0,8,0.00,,CLR,0.00,VWS V14.01,2013-11-23 00:02:00,
2013-11-22 16:07:00,71.5,9.8,29.92,NNW,333,3.0,4.0,9,0.00,,CLR,0.00,VWS V14.01,2013-11-23 00:07:00,
2013-11-22 16:12:00,71.5,9.8,29.92,NNW,347,2.0,7.0,9,0.00,,CLR,0.00,VWS V14.01,2013-11-23 00:12:00,
2013-11-22 16:17:00,71.5,7.1,29.92,NNE,33,2.0,9.0,8,0.00,,CLR,0.00,VWS V14.01,2013-11-23 00:17:00,
2013-11-22 16:22:00,71.4,7.1,29.92,NNW,331,2.0,10.0,8,0.00,,CLR,0.00,VWS V14.01,2013-11-23 00:22:00,
2013-11-22 16:27:00,71.2,6.9,29.92,NNE,18,2.0,13.0,8,0.00,,CLR,0.00,VWS V14.01,2013-11-23 00:27:00,
2013-11-22 16:32:00,71.0,6.8,29.92,SE,136,2.0,4.0,8,0.00,,CLR,0.00,VWS V14.01,2013-11-23 00:32:00,
2013-11-22 16:37:00,70.9,9.3,29.92,North,352,2.0,4.0,9,0.00,,CLR,0.00,VWS V14.01,2013-11-23 00:37:00,
2013-11-22 16:42:00,70.1,8.7,29.92,NNE,15,4.0,5.0,9,0.00,,CLR,0.00,VWS V14.01,2013-11-23 00:42:00,
2013-11-22 16:47:00,70.1,8.7,29.92,NNE,15,2.0,6.0,9,0.00,,CLR,0.00,VWS V14.01,2013-11-23 00:47:00,
2013-11-22 16:52:00,69.9,8.5,29.92,NNE,15,1.0,9.0,9,0.00,,CLR,0.00,VWS V14.01,2013-11-23 00:52:00,
2013-11-22 16:57:00,70.0,6.0,29.92,NNE,31,1.0,9.0,8,0.00,,CLR,0.00,VWS V14.01,2013-11-23 00:57:00,
2013-11-22 17:02:00,69.6,5.7,29.92,NW,307,2.0,8.0,8,0.00,,CLR,0.00,VWS V14.01,2013-11-23 01:02:00,
2013-11-22 17:07:00,69.3,8.1,29.92,NE,48,1.0,8.0,9,0.00,,CLR,0.00,VWS V14.01,2013-11-23 01:07:00,
2013-11-22 17:12:00,69.4,5.6,29.93,East,82,6.0,10.0,8,0.00,,CLR,0.00,VWS V14.01,2013-11-23 01:12:00,
2013-11-22 17:17:00,69.6,8.3,29.92,NE,53,2.0,4.0,9,0.00,,CLR,0.00,VWS V14.01,2013-11-23 01:17:00,
2013-11-22 17:22:00,69.1,7.9,29.92,NNE,19,2.0,9.0,9,0.00,,CLR,0.00,VWS V14.01,2013-11-23 01:22:00,
2013-11-22 17:27:00,68.6,9.9,29.92,WNW,302,1.0,9.0,10,0.00,,CLR,0.00,VWS V14.01,2013-11-23 01:27:00,
2013-11-22 17:32:00,68.3,9.7,29.92,NE,34,0.0,3.0,10,0.00,,CLR,0.00,VWS V14.01,2013-11-23 01:32:00,
2013-11-22 17:37:00,67.7,11.3,29.92,NE,42,1.0,3.0,11,0.00,,CLR,0.00,VWS V14.01,2013-11-23 01:37:00,
2013-11-22 17:42:00,67.8,9.3,29.92,North,1,5.0,11.0,10,0.00,,CLR,0.00,VWS V14.01,2013-11-23 01:42:00,
2013-11-22 17:47:00,68.5,9.8,29.92,NNW,335,1.0,4.0,10,0.00,,CLR,0.00,VWS V14.01,2013-11-23 01:47:00,
2013-11-22 17:52:00,68.5,9.8,29.92,NE,36,1.0,5.0,10,0.00,,CLR,0.00,VWS V14.01,2013-11-23 01:52:00,
2013-11-22 17:57:00,68.6,7.6,29.93,ENE,73,2.0,8.0,9,0.00,,CLR,0.00,VWS V14.01,2013-11-23 01:57:00,
2013-11-22 18:02:00,68.4,9.7,29.93,SSE,147,1.0,2.0,10,0.00,,CLR,0.00,VWS V14.01,2013-11-23 02:02:00,
2013-11-22 18:07:00,67.7,9.2,29.92,ENE,77,3.0,7.0,10,0.00,,CLR,0.00,VWS V14.01,2013-11-23 02:07:00,
2013-11-22 18:12:00,67.9,7.0,29.92,SE,142,1.0,8.0,9,0.00,,CLR,0.00,VWS V14.01,2013-11-23 02:12:00,
2013-11-22 18:17:00,68.3,7.3,29.93,ESE,110,1.0,8.0,9,0.00,,CLR,0.00,VWS V14.01,2013-11-23 02:17:00,
2013-11-22 18:22:00,68.2,9.6,29.93,ENE,70,3.0,8.0,10,0.00,,CLR,0.00,VWS V14.01,2013-11-23 02:22:00,
2013-11-22 18:27:00,67.7,9.2,29.93,East,86,2.0,8.0,10,0.00,,CLR,0.00,VWS V14.01,2013-11-23 02:27:00,
2013-11-22 18:32:00,67.5,11.2,29.93,North,4,2.0,3.0,11,0.00,,CLR,0.00,VWS V14.01,2013-11-23 02:32:00,
2013-11-22 18:37:00,66.8,8.5,29.93,North,5,2.0,6.0,10,0.00,,CLR,0.00,VWS V14.01,2013-11-23 02:37:00,
2013-11-22 18:42:00,66.8,10.6,29.92,WNW,291,2.0,6.0,11,0.00,,CLR,0.00,VWS V14.01,2013-11-23 02:42:00,
2013-11-22 18:47:00,66.2,12.1,29.93,WNW,290,0.0,2.0,12,0.00,,CLR,0.00,VWS V14.01,2013-11-23 02:47:00,
2013-11-22 18:52:00,66.0,10.0,29.93,East,86,1.0,8.0,11,0.00,,CLR,0.00,VWS V14.01,2013-11-23 02:52:00,
2013-11-22 18:57:00,67.0,8.7,29.92,ESE,105,1.0,8.0,10,0.00,,CLR,0.00,VWS V14.01,2013-11-23 02:57:00,
2013-11-22 19:02:00,67.4,9.0,29.92,ENE,73,5.0,14.0,10,0.00,,CLR,0.00,VWS V14.01,2013-11-23 03:02:00,
2013-11-22 19:07:00,67.4,9.0,29.92,East,83,3.0,14.0,10,0.00,,CLR,0.00,VWS V14.01,2013-11-23 03:07:00,
2013-11-22 19:12:00,67.5,9.1,29.91,NE,38,5.0,14.0,10,0.00,,CLR,0.00,VWS V14.01,2013-11-23 03:12:00,
2013-11-22 19:17:00,67.7,9.2,29.92,NE,52,3.0,9.0,10,0.00,,CLR,0.00,VWS V14.01,2013-11-23 03:17:00,
2013-11-22 19:22:00,68.3,9.7,29.91,ENE,75,6.0,22.0,10,0.00,,CLR,0.00,VWS V14.01,2013-11-23 03:22:00,
2013-11-22 19:27:00,68.7,10.0,29.92,East,84,10.0,22.0,10,0.00,,CLR,0.00,VWS V14.01,2013-11-23 03:27:00,
2013-11-22 19:32:00,68.6,9.9,29.91,ENE,65,18.0,23.0,10,0.00,,CLR,0.00,VWS V14.01,2013-11-23 03:32:00,
2013-11-22 19:37:00,68.7,10.0,29.90,NE,56,18.0,23.0,10,0.00,,CLR,0.00,VWS V14.01,2013-11-23 03:37:00,
2013-11-22 19:42:00,68.6,9.9,29.90,SE,129,8.0,23.0,10,0.00,,CLR,0.00,VWS V14.01,2013-11-23 03:42:00,
2013-11-22 19:47:00,68.5,9.8,29.91,East,89,8.0,25.0,10,0.00,,CLR,0.00,VWS V14.01,2013-11-23 03:47:00,
2013-11-22 19:52:00,68.5,9.8,29.90,ENE,63,2.0,25.0,10,0.00,,CLR,0.00,VWS V14.01,2013-11-23 03:52:00,
2013-11-22 19:57:00,68.2,9.6,29.90,SE,142,2.0,25.0,10,0.00,,CLR,0.00,VWS V14.01,2013-11-23 03:57:00,
2013-11-22 20:02:00,68.0,9.4,29.90,East,101,2.0,14.0,10,0.00,,CLR,0.00,VWS V14.01,2013-11-23 04:02:00,
2013-11-22 20:07:00,68.0,9.4,29.90,SE,127,4.0,19.0,10,0.00,,CLR,0.00,VWS V14.01,2013-11-23 04:07:00,
2013-11-22 20:12:00,67.8,9.3,29.90,NNE,25,1.0,19.0,10,0.00,,CLR,0.00,VWS V14.01,2013-11-23 04:12:00,
2013-11-22 20:17:00,67.6,11.2,29.90,SSE,150,5.0,11.0,11,0.00,,CLR,0.00,VWS V14.01,2013-11-23 04:17:00,
2013-11-22 20:22:00,67.6,9.1,29.90,NE,34,11.0,12.0,10,0.00,,CLR,0.00,VWS V14.01,2013-11-23 04:22:00,
2013-11-22 20:27:00,67.7,9.2,29.90,SE,137,2.0,12.0,10,0.00,,CLR,0.00,VWS V14.01,2013-11-23 04:27:00,
2013-11-22 20:32:00,67.6,11.2,29.90,East,80,4.0,10.0,11,0.00,,CLR,0.00,VWS V14.01,2013-11-23 04:32:00,
2013-11-22 20:37:00,67.5,9.1,29.90,NNW,338,7.0,10.0,10,0.00,,CLR,0.00,VWS V14.01,2013-11-23 04:37:00,
2013-11-22 20:42:00,67.6,9.1,29.91,East,79,4.0,15.0,10,0.00,,CLR,0.00,VWS V14.01,2013-11-23 04:42:00,
2013-11-22 20:47:00,67.5,11.2,29.91,ENE,74,2.0,7.0,11,0.00,,CLR,0.00,VWS V14.01,2013-11-23 04:47:00,
2013-11-22 20:52:00,67.4,11.1,29.91,NE,56,0.0,9.0,11,0.00,,CLR,0.00,VWS V14.01,2013-11-23 04:52:00,
2013-11-22 20:57:00,67.2,8.8,29.91,NE,44,5.0,10.0,10,0.00,,CLR,0.00,VWS V14.01,2013-11-23 04:57:00,
2013-11-22 21:01:00,67.0,10.8,29.92,ENE,74,3.0,3.0,11,0.00,,CLR,0.00,VWS V14.01,2013-11-23 05:01:00,
2013-11-22 21:02:00,67.0,10.8,29.92,NNW,333,1.0,4.0,11,0.00,,CLR,0.00,VWS V14.01,2013-11-23 05:02:00,
2013-11-22 21:07:00,66.9,10.7,29.92,North,352,4.0,7.0,11,0.00,,CLR,0.00,VWS V14.01,2013-11-23 05:07:00,
2013-11-22 21:12:00,66.7,10.6,29.92,ESE,119,2.0,7.0,11,0.00,,CLR,0.00,VWS V14.01,2013-11-23 05:12:00,
2013-11-22 21:17:00,66.5,12.4,29.92,NE,42,5.0,7.0,12,0.00,,CLR,0.00,VWS V14.01,2013-11-23 05:17:00,
2013-11-22 21:22:00,66.7,10.6,29.91,East,101,1.0,8.0,11,0.00,,CLR,0.00,VWS V14.01,2013-11-23 05:22:00,
2013-11-22 21:27:00,66.9,10.7,29.92,NE,53,1.0,9.0,11,0.00,,CLR,0.00,VWS V14.01,2013-11-23 05:27:00,
2013-11-22 21:32:00,66.9,10.7,29.92,ENE,78,4.0,9.0,11,0.00,,CLR,0.00,VWS V14.01,2013-11-23 05:32:00,
2013-11-22 21:37:00,67.0,10.8,29.92,ESE,103,3.0,9.0,11,0.00,,CLR,0.00,VWS V14.01,2013-11-23 05:37:00,
2013-11-22 21:42:00,67.0,8.7,29.92,East,88,7.0,12.0,10,0.00,,CLR,0.00,VWS V14.01,2013-11-23 05:42:00,
2013-11-22 21:47:00,67.0,10.8,29.93,ENE,60,2.0,10.0,11,0.00,,CLR,0.00,VWS V14.01,2013-11-23 05:47:00,
2013-11-22 21:52:00,66.7,10.6,29.92,North,359,0.0,10.0,11,0.00,,CLR,0.00,VWS V14.01,2013-11-23 05:52:00,
2013-11-22 21:57:00,66.4,10.3,29.93,NE,53,3.0,12.0,11,0.00,,CLR,0.00,VWS V14.01,2013-11-23 05:57:00,
2013-11-22 22:02:00,66.3,10.2,29.93,East,83,2.0,7.0,11,0.00,,CLR,0.00,VWS V14.01,2013-11-23 06:02:00,
2013-11-22 22:07:00,66.3,10.2,29.92,ENE,70,3.0,8.0,11,0.00,,CLR,0.00,VWS V14.01,2013-11-23 06:07:00,
2013-11-22 22:12:00,65.9,11.9,29.93,NE,51,2.0,8.0,12,0.00,,CLR,0.00,VWS V14.01,2013-11-23 06:12:00,
2013-11-22 22:17:00,65.7,9.8,29.93,NE,43,4.0,8.0,11,0.00,,CLR,0.00,VWS V14.01,2013-11-23 06:17:00,
2013-11-22 22:22:00,65.8,9.9,29.92,ENE,58,4.0,11.0,11,0.00,,CLR,0.00,VWS V14.01,2013-11-23 06:22:00,
2013-11-22 22:26:00,65.8,11.8,29.92,NE,45,5.0,11.0,12,0.00,,CLR,0.00,VWS V14.01,2013-11-23 06:26:00,
2013-11-22 22:31:00,65.9,9.9,29.93,East,82,5.0,10.0,11,0.00,,CLR,0.00,VWS V14.01,2013-11-23 06:31:00,
2013-11-22 22:36:00,66.0,10.0,29.93,NE,34,9.0,15.0,11,0.00,,CLR,0.00,VWS V14.01,2013-11-23 06:36:00,
2013-11-22 22:41:00,66.2,10.2,29.93,ENE,72,2.0,15.0,11,0.00,,CLR,0.00,VWS V14.01,2013-11-23 06:41:00,
2013-11-22 22:46:00,65.9,11.9,29.93,North,9,1.0,2.0,12,0.00,,CLR,0.00,VWS V14.01,2013-11-23 06:46:00,
2013-11-22 22:51:00,65.0,13.0,29.94,NW,309,2.0,6.0,13,0.00,,CLR,0.00,VWS V14.01,2013-11-23 06:51:00,
2013-11-22 22:56:00,64.8,12.8,29.94,NNW,340,6.0,8.0,13,0.00,,CLR,0.00,VWS V14.01,2013-11-23 06:56:00,
2013-11-22 23:01:00,65.1,11.3,29.94,North,351,3.0,5.0,12,0.00,,CLR,0.00,VWS V14.01,2013-11-23 07:01:00,
2013-11-22 23:06:00,65.4,11.5,29.94,NNE,25,4.0,14.0,12,0.00,,CLR,0.00,VWS V14.01,2013-11-23 07:06:00,
2013-11-22 23:11:00,65.5,11.6,29.94,SE,142,0.0,14.0,12,0.00,,CLR,0.00,VWS V14.01,2013-11-23 07:11:00,
2013-11-22 23:16:00,64.8,12.8,29.95,North,359,0.0,3.0,13,0.00,,CLR,0.00,VWS V14.01,2013-11-23 07:16:00,
2013-11-22 23:21:00,63.8,13.7,29.94,West,264,0.0,4.0,14,0.00,,CLR,0.00,VWS V14.01,2013-11-23 07:21:00,
2013-11-22 23:26:00,63.8,10.2,29.94,North,359,4.0,10.0,12,0.00,,CLR,0.00,VWS V14.01,2013-11-23 07:26:00,
2013-11-22 23:31:00,64.0,12.2,29.94,North,4,1.0,6.0,13,0.00,,CLR,0.00,VWS V14.01,2013-11-23 07:31:00,
2013-11-22 23:36:00,63.6,13.6,29.94,WNW,300,1.0,6.0,14,0.00,,CLR,0.00,VWS V14.01,2013-11-23 07:36:00,
2013-11-22 23:41:00,62.6,14.3,29.94,WNW,297,0.0,6.0,15,0.00,,CLR,0.00,VWS V14.01,2013-11-23 07:41:00,
2013-11-22 23:46:00,61.5,16.3,29.95,WNW,297,0.0,2.0,17,0.00,,CLR,0.00,VWS V14.01,2013-11-23 07:46:00,
2013-11-22 23:51:00,60.5,14.1,29.95,WNW,297,0.0,2.0,16,0.00,,CLR,0.00,VWS V14.01,2013-11-23 07:51:00,
2013-11-22 23:56:00,60.2,15.2,29.95,WNW,297,0.0,2.0,17,0.00,,CLR,0.00,VWS V14.01,2013-11-23 07:56:00,